Time;durP1;ratioP1;P1;durP2;ratioP2;P2;SDS_P1;SDS_P2;PMS_P1;PMS_P2;Temp;Humidity;BMP_temperature;BMP_pressure;BME280_temperature;BME280_humidity;BME280_pressure;Samples;Min_cycle;Max_cycle;Signal;HPM_P1;HPM_P2
2023/05/20 00:01:28;;;;;;;9.70;7.47;;;;;;;14.08;100.00;100794.56;5529585;32;34064;-67
2023/05/20 00:04:34;;;;;;;11.15;6.82;;;;;;;14.02;100.00;100791.78;5529452;32;34480;-68
2023/05/20 00:07:40;;;;;;;10.85;6.87;;;;;;;13.93;100.00;100783.84;5529524;32;34003;-68
2023/05/20 00:10:48;;;;;;;12.02;7.15;;;;;;;13.92;100.00;100784.84;5529335;32;34636;-68
2023/05/20 00:13:55;;;;;;;15.13;7.15;;;;;;;13.94;100.00;100779.34;5529290;32;34090;-68
2023/05/20 00:17:03;;;;;;;12.30;7.07;;;;;;;13.82;100.00;100789.59;5529339;32;34654;-68
2023/05/20 00:20:11;;;;;;;8.40;7.50;;;;;;;13.84;100.00;100781.44;5529279;32;33989;-68
2023/05/20 00:23:17;;;;;;;12.45;6.80;;;;;;;13.77;100.00;100770.62;5528841;32;33585;-68
2023/05/20 00:26:26;;;;;;;10.63;7.60;;;;;;;13.65;100.00;100774.72;5529352;32;33793;-68
2023/05/20 00:29:40;;;;;;;9.93;7.80;;;;;;;13.66;100.00;100767.56;5529186;32;33953;-68
2023/05/20 00:32:48;;;;;;;12.20;7.93;;;;;;;13.75;100.00;100755.81;5528289;32;34473;-68
2023/05/20 00:35:54;;;;;;;14.75;7.60;;;;;;;13.69;100.00;100756.56;5529180;32;34300;-67
2023/05/20 00:39:01;;;;;;;15.75;7.50;;;;;;;13.73;100.00;100769.34;5529169;32;34100;-68
2023/05/20 00:42:10;;;;;;;12.80;7.72;;;;;;;13.71;100.00;100776.69;5528335;32;34323;-68
2023/05/20 00:45:17;;;;;;;11.07;7.70;;;;;;;13.72;100.00;100773.00;5529121;32;34728;-68
2023/05/20 00:48:23;;;;;;;12.10;7.62;;;;;;;13.73;100.00;100769.34;5529160;32;33689;-69
2023/05/20 00:51:36;;;;;;;9.65;7.35;;;;;;;13.72;100.00;100770.34;5529060;32;34882;-68
2023/05/20 00:54:47;;;;;;;11.43;7.00;;;;;;;13.76;100.00;100762.81;5528752;32;34510;-68
2023/05/20 00:57:54;;;;;;;9.32;6.57;;;;;;;13.68;100.00;100770.88;5528995;32;33898;-68
2023/05/20 01:01:02;;;;;;;15.15;7.50;;;;;;;13.65;100.00;100766.72;5529161;32;34334;-69
2023/05/20 01:04:09;;;;;;;11.93;6.80;;;;;;;13.61;100.00;100762.75;5529362;32;33813;-68
2023/05/20 01:07:19;;;;;;;16.37;7.93;;;;;;;13.66;100.00;100768.38;5528963;32;34501;-68
2023/05/20 01:10:29;;;;;;;8.57;7.12;;;;;;;13.63;100.00;100765.25;5528855;32;34473;-68
2023/05/20 01:13:53;;;;;;;11.38;7.70;;;;;;;13.77;100.00;100762.63;5528076;32;33671;-68
2023/05/20 01:17:01;;;;;;;10.20;7.87;;;;;;;13.80;100.00;100766.78;5528774;32;33831;-68
2023/05/20 01:20:11;;;;;;;10.95;6.97;;;;;;;13.84;100.00;100771.59;5529102;32;34501;-68
2023/05/20 01:23:17;;;;;;;11.15;7.80;;;;;;;13.90;100.00;100775.34;5528858;32;33653;-68
2023/05/20 01:26:27;;;;;;;10.02;6.97;;;;;;;13.84;100.00;100776.94;5528038;32;33819;-68
2023/05/20 01:29:39;;;;;;;11.80;7.28;;;;;;;13.81;100.00;100781.78;5528840;32;33892;-68
2023/05/20 01:32:57;;;;;;;12.00;7.30;;;;;;;13.74;100.00;100781.69;5528618;32;34505;-68
2023/05/20 01:36:03;;;;;;;12.13;7.37;;;;;;;13.67;100.00;100780.72;5528241;32;34021;-68
2023/05/20 01:39:11;;;;;;;10.35;6.80;;;;;;;13.70;100.00;100775.00;5528908;32;33893;-68
2023/05/20 01:42:19;;;;;;;10.27;6.95;;;;;;;13.63;100.00;100784.75;5528691;32;34928;-68
2023/05/20 01:45:27;;;;;;;9.30;7.10;;;;;;;13.56;100.00;100785.63;5528585;32;33826;-68
2023/05/20 01:48:38;;;;;;;10.45;7.10;;;;;;;13.52;100.00;100795.81;5528558;32;33142;-68
2023/05/20 01:51:47;;;;;;;8.38;6.97;;;;;;;13.46;100.00;100791.19;5528565;32;34550;-68
2023/05/20 01:54:53;;;;;;;13.98;8.00;;;;;;;13.39;100.00;100793.75;5528381;32;33557;-68
2023/05/20 01:58:01;;;;;;;11.57;7.18;;;;;;;13.35;100.00;100792.44;5528817;32;33808;-68
2023/05/20 02:01:08;;;;;;;9.75;7.32;;;;;;;13.35;100.00;100787.09;5528491;32;33538;-69
2023/05/20 02:04:17;;;;;;;12.52;7.57;;;;;;;13.49;100.00;100789.00;5528490;32;34357;-68
2023/05/20 02:07:22;;;;;;;9.48;7.45;;;;;;;13.80;100.00;100791.59;5528436;32;34331;-68
2023/05/20 02:10:30;;;;;;;11.32;7.25;;;;;;;13.91;100.00;100787.69;5528492;32;34469;-68
2023/05/20 02:13:38;;;;;;;15.52;7.43;;;;;;;13.97;100.00;100796.81;5528358;32;32252;-68
2023/05/20 02:16:47;;;;;;;13.10;7.62;;;;;;;13.92;100.00;100794.69;5528379;32;33553;-68
2023/05/20 02:19:56;;;;;;;10.45;7.65;;;;;;;13.85;100.00;100786.56;5528177;32;34006;-68
2023/05/20 02:23:04;;;;;;;9.57;7.10;;;;;;;13.77;100.00;100791.12;5528314;32;35232;-68
2023/05/20 02:26:12;;;;;;;11.48;7.50;;;;;;;13.72;100.00;100796.19;5528204;32;33843;-68
2023/05/20 02:29:20;;;;;;;8.32;7.43;;;;;;;13.72;100.00;100796.19;5528166;32;33959;-68
2023/05/20 02:32:28;;;;;;;12.40;7.07;;;;;;;13.68;100.00;100795.72;5528199;32;33841;-68
2023/05/20 02:35:36;;;;;;;7.80;6.95;;;;;;;13.65;100.00;100792.59;5528216;32;34348;-68
2023/05/20 02:38:43;;;;;;;13.27;7.28;;;;;;;13.55;100.00;100792.81;5528049;32;33569;-68
2023/05/20 02:41:50;;;;;;;8.88;6.70;;;;;;;13.50;100.00;100797.84;5527947;32;33936;-68
2023/05/20 02:44:57;;;;;;;10.57;7.50;;;;;;;13.40;100.00;100791.91;5527455;32;34276;-68
2023/05/20 02:48:06;;;;;;;10.23;6.37;;;;;;;13.30;100.00;100799.28;5528248;32;33631;-69
2023/05/20 02:51:14;;;;;;;11.43;6.93;;;;;;;13.26;100.00;100798.81;5527734;32;33889;-68
2023/05/20 02:54:23;;;;;;;11.73;7.55;;;;;;;13.40;100.00;100792.75;5526553;32;33551;-69
2023/05/20 02:57:31;;;;;;;10.27;6.95;;;;;;;13.38;100.00;100801.91;5526754;32;33844;-69
2023/05/20 03:00:41;;;;;;;13.07;7.68;;;;;;;13.29;100.00;100810.94;5527681;32;33551;-68
2023/05/20 03:03:49;;;;;;;9.48;7.55;;;;;;;13.19;100.00;100803.16;5527486;32;35242;-68
2023/05/20 03:06:57;;;;;;;16.37;7.95;;;;;;;13.10;100.00;100796.19;5527633;32;33650;-68
2023/05/20 03:10:06;;;;;;;10.38;7.57;;;;;;;13.10;100.00;100806.84;5527480;32;33858;-69
2023/05/20 03:13:14;;;;;;;10.27;7.53;;;;;;;13.24;100.00;100803.47;5527656;32;33784;-68
2023/05/20 03:16:19;;;;;;;12.75;7.68;;;;;;;13.33;100.00;100806.94;5527294;32;33910;-68
2023/05/20 03:19:29;;;;;;;11.85;7.37;;;;;;;13.23;100.00;100801.81;5527283;32;34493;-68
2023/05/20 03:22:36;;;;;;;9.80;7.20;;;;;;;13.21;100.00;100805.66;5527189;32;34169;-68
2023/05/20 03:25:45;;;;;;;13.57;7.32;;;;;;;13.16;100.00;100808.84;5527187;32;34630;-69
2023/05/20 03:28:50;;;;;;;10.13;7.60;;;;;;;13.19;100.00;100810.34;5527111;32;33905;-69
2023/05/20 03:32:01;;;;;;;12.27;7.62;;;;;;;13.21;100.00;100822.50;5527167;32;33767;-68
2023/05/20 03:35:10;;;;;;;10.48;8.00;;;;;;;13.18;100.00;100816.66;5527036;32;33857;-68
2023/05/20 03:38:17;;;;;;;15.48;7.82;;;;;;;13.23;100.00;100817.78;5527021;32;33647;-68
2023/05/20 03:41:25;;;;;;;13.18;8.40;;;;;;;13.27;100.00;100819.09;5527308;32;33782;-68
2023/05/20 03:44:31;;;;;;;10.80;7.70;;;;;;;13.29;100.00;100822.44;5526941;32;33565;-69
2023/05/20 03:47:39;;;;;;;10.95;7.90;;;;;;;13.31;100.00;100823.06;5526706;32;33798;-69
2023/05/20 03:50:46;;;;;;;12.75;8.88;;;;;;;13.34;100.00;100822.75;5526739;32;33895;-69
2023/05/20 03:53:53;;;;;;;10.75;7.97;;;;;;;13.37;100.00;100824.22;5526894;32;33796;-69
2023/05/20 03:57:02;;;;;;;9.40;7.75;;;;;;;13.41;100.00;100831.69;5527335;32;34409;-69
2023/05/20 04:00:13;;;;;;;12.95;7.93;;;;;;;13.44;100.00;100830.53;5540586;32;34548;-69
2023/05/20 04:03:19;;;;;;;12.88;7.78;;;;;;;13.44;100.00;100830.53;5540587;32;34225;-69
2023/05/20 04:06:26;;;;;;;12.70;7.90;;;;;;;13.51;100.00;100841.31;5548809;32;33703;-70
2023/05/20 04:09:32;;;;;;;9.30;7.60;;;;;;;13.58;100.00;100839.59;5548773;32;34505;-68
2023/05/20 04:12:42;;;;;;;10.23;7.30;;;;;;;13.61;100.00;100847.22;5548658;32;34872;-69
2023/05/20 04:15:51;;;;;;;10.80;7.00;;;;;;;13.67;100.00;100843.87;5548793;32;33710;-69
2023/05/20 04:18:59;;;;;;;11.40;6.90;;;;;;;13.71;100.00;100847.84;5547883;32;33715;-70
2023/05/20 04:22:09;;;;;;;8.88;7.62;;;;;;;13.72;100.00;100854.84;5548679;32;33843;-68
2023/05/20 04:25:20;;;;;;;11.07;6.97;;;;;;;13.83;100.00;100855.28;5548540;32;34110;-69
2023/05/20 04:28:30;;;;;;;14.48;7.70;;;;;;;13.90;100.00;100856.22;5548674;32;34012;-68
2023/05/20 04:31:37;;;;;;;11.30;7.27;;;;;;;13.84;100.00;100853.44;5548489;32;33935;-69
2023/05/20 04:34:49;;;;;;;11.38;7.47;;;;;;;13.92;100.00;100861.38;5548588;32;33703;-68
2023/05/20 04:37:57;;;;;;;8.48;6.95;;;;;;;13.85;100.00;100860.41;5547573;32;33611;-67
2023/05/20 04:41:05;;;;;;;12.07;6.75;;;;;;;13.98;100.00;100866.00;5548607;32;33673;-66
2023/05/20 04:44:12;;;;;;;8.02;6.20;;;;;;;14.09;100.00;100862.91;5548390;32;33767;-69
2023/05/20 04:47:19;;;;;;;9.27;6.75;;;;;;;14.22;100.00;100868.47;5548466;32;34579;-68
2023/05/20 04:50:26;;;;;;;10.18;6.78;;;;;;;14.12;100.00;100873.22;5547603;32;34607;-68
2023/05/20 04:53:35;;;;;;;9.57;7.05;;;;;;;14.07;100.00;100856.94;5546990;32;33964;-69
2023/05/20 04:56:45;;;;;;;9.63;6.80;;;;;;;14.17;100.00;100856.69;5543964;32;33434;-67
2023/05/20 04:59:51;;;;;;;10.65;6.87;;;;;;;14.25;100.00;100864.63;5548610;32;33892;-67
2023/05/20 05:02:58;;;;;;;14.38;7.18;;;;;;;14.50;100.00;100851.91;5548243;32;33674;-69
2023/05/20 05:06:04;;;;;;;12.43;6.93;;;;;;;14.59;100.00;100857.00;5548257;32;34239;-68
2023/05/20 05:09:12;;;;;;;11.85;6.90;;;;;;;14.71;100.00;100868.06;5547937;32;34434;-68
2023/05/20 05:12:18;;;;;;;11.50;6.65;;;;;;;14.59;100.00;100869.50;5547963;32;33922;-67
2023/05/20 05:15:25;;;;;;;12.27;6.78;;;;;;;14.72;100.00;100859.84;5548211;32;33811;-68
2023/05/20 05:18:31;;;;;;;11.85;7.25;;;;;;;14.84;100.00;100864.75;5547909;32;33875;-67
2023/05/20 05:21:36;;;;;;;8.55;6.45;;;;;;;14.91;100.00;100852.34;5547247;32;33840;-68
2023/05/20 05:24:41;;;;;;;10.43;5.95;;;;;;;14.95;100.00;100853.63;5548092;32;33897;-68
2023/05/20 05:27:49;;;;;;;9.32;6.62;;;;;;;15.07;100.00;100852.94;5547972;32;34740;-68
2023/05/20 05:30:57;;;;;;;10.77;6.28;;;;;;;15.22;100.00;100855.62;5547943;32;35238;-67
2023/05/20 05:34:04;;;;;;;10.63;5.93;;;;;;;15.55;100.00;100864.88;5547856;32;33622;-67
2023/05/20 05:37:10;;;;;;;11.12;6.37;;;;;;;15.69;100.00;100867.69;5547927;32;34573;-67
2023/05/20 05:40:17;;;;;;;10.70;6.30;;;;;;;15.84;100.00;100861.28;5547771;32;33993;-68
2023/05/20 05:43:23;;;;;;;8.85;5.75;;;;;;;15.94;100.00;100866.34;5547863;32;33908;-68
2023/05/20 05:46:30;;;;;;;9.20;6.20;;;;;;;16.15;100.00;100868.19;5547818;32;34333;-67
2023/05/20 05:49:36;;;;;;;8.90;5.97;;;;;;;16.21;100.00;100870.09;5547559;32;34340;-67
2023/05/20 05:52:44;;;;;;;14.98;6.37;;;;;;;16.44;100.00;100868.03;5543233;32;33556;-68
2023/05/20 05:55:50;;;;;;;9.07;5.37;;;;;;;16.65;100.00;100870.72;5528238;32;33873;-69
2023/05/20 05:58:54;;;;;;;9.13;6.15;;;;;;;16.90;100.00;100885.28;5528158;32;34164;-70
2023/05/20 06:01:58;;;;;;;9.15;5.37;;;;;;;16.92;100.00;100883.25;5528228;32;33723;-67
2023/05/20 06:05:04;;;;;;;8.82;5.22;;;;;;;17.03;100.00;100883.72;5528264;32;34063;-69
2023/05/20 06:08:07;;;;;;;8.52;5.78;;;;;;;17.16;100.00;100878.44;5528201;32;33894;-70
2023/05/20 06:11:12;;;;;;;8.95;5.60;;;;;;;17.29;100.00;100876.63;5527981;32;33888;-69
2023/05/20 06:14:17;;;;;;;16.52;5.62;;;;;;;17.24;100.00;100883.63;5528126;32;33785;-68
2023/05/20 06:17:21;;;;;;;8.40;6.07;;;;;;;17.17;100.00;100880.91;5527003;32;33754;-68
2023/05/20 06:20:26;;;;;;;17.02;6.30;;;;;;;17.21;100.00;100875.97;5527031;32;33715;-68
2023/05/20 06:23:32;;;;;;;10.80;5.65;;;;;;;17.18;100.00;100877.22;5527803;32;33723;-68
2023/05/20 06:26:36;;;;;;;13.23;6.45;;;;;;;17.26;100.00;100884.25;5527910;32;33736;-69
2023/05/20 06:29:39;;;;;;;8.02;5.32;;;;;;;17.28;100.00;100880.34;5544624;32;33844;-69
2023/05/20 06:32:46;;;;;;;11.27;5.70;;;;;;;17.53;100.00;100875.28;5546277;32;34591;-69
2023/05/20 06:35:50;;;;;;;12.88;5.57;;;;;;;17.79;100.00;100872.72;5545489;32;33885;-68
2023/05/20 06:38:54;;;;;;;11.00;6.10;;;;;;;17.94;100.00;100879.78;5541596;32;33293;-69
2023/05/20 06:41:58;;;;;;;11.35;5.62;;;;;;;18.25;100.00;100880.84;5540068;32;34465;-68
2023/05/20 06:45:04;;;;;;;12.02;5.43;;;;;;;18.39;100.00;100872.81;5536430;32;34457;-69
2023/05/20 06:48:10;;;;;;;11.60;5.62;;;;;;;18.50;100.00;100880.22;5541286;32;34504;-69
2023/05/20 06:51:15;;;;;;;6.60;5.40;;;;;;;18.73;100.00;100875.31;5543456;32;33570;-71
2023/05/20 06:54:20;;;;;;;9.10;5.45;;;;;;;18.84;100.00;100860.37;5529861;32;33822;-68
2023/05/20 06:57:25;;;;;;;14.18;7.03;;;;;;;19.12;100.00;100860.13;5530050;32;34102;-68
2023/05/20 07:00:31;;;;;;;9.77;5.95;;;;;;;19.48;100.00;100863.94;5539868;32;34582;-69
2023/05/20 07:03:36;;;;;;;7.15;5.82;;;;;;;19.92;100.00;100862.22;5544473;32;33652;-68
2023/05/20 07:06:41;;;;;;;12.98;6.05;;;;;;;20.11;100.00;100863.97;5542820;32;33795;-69
2023/05/20 07:09:45;;;;;;;11.05;5.40;;;;;;;20.52;95.46;100863.47;5544455;32;34345;-68
2023/05/20 07:12:50;;;;;;;7.78;5.62;;;;;;;20.60;90.98;100865.06;5534627;32;34496;-68
2023/05/20 07:15:55;;;;;;;9.98;5.18;;;;;;;20.63;90.19;100860.03;5543927;32;33897;-69
2023/05/20 07:19:00;;;;;;;9.07;5.65;;;;;;;20.76;87.72;100853.69;5545958;32;33821;-70
2023/05/20 07:22:04;;;;;;;9.65;5.70;;;;;;;21.12;81.27;100853.72;5540101;32;33813;-69
2023/05/20 07:25:09;;;;;;;9.00;5.70;;;;;;;21.62;81.50;100861.63;5543393;32;32081;-69
2023/05/20 07:28:16;;;;;;;8.40;5.25;;;;;;;21.90;74.95;100851.06;5526446;32;34589;-69
2023/05/20 07:31:20;;;;;;;8.48;5.40;;;;;;;22.95;70.39;100838.47;5527511;32;34179;-68
2023/05/20 07:34:25;;;;;;;12.93;5.50;;;;;;;24.01;66.28;100852.50;5529171;32;33874;-69
2023/05/20 07:37:30;;;;;;;7.68;5.10;;;;;;;24.49;61.25;100851.97;5533064;32;33572;-69
2023/05/20 07:40:35;;;;;;;9.55;5.00;;;;;;;24.75;59.91;100845.00;5540666;32;33983;-69
2023/05/20 07:43:40;;;;;;;7.45;4.87;;;;;;;25.13;59.52;100847.75;5539785;32;34058;-68
2023/05/20 07:46:44;;;;;;;11.02;4.95;;;;;;;25.12;57.97;100855.06;5541952;32;33972;-71
2023/05/20 07:49:50;;;;;;;9.50;4.62;;;;;;;25.76;54.57;100855.28;5544977;32;34501;-70
2023/05/20 07:52:55;;;;;;;5.72;4.75;;;;;;;25.46;56.54;100863.09;5543451;32;33550;-70
2023/05/20 07:56:00;;;;;;;10.30;4.95;;;;;;;24.14;58.38;100866.56;5535238;32;34888;-67
2023/05/20 07:59:04;;;;;;;10.13;5.20;;;;;;;25.17;57.18;100856.22;5540897;32;35857;-70
2023/05/20 08:02:09;;;;;;;9.23;5.00;;;;;;;24.98;55.95;100847.56;5535365;32;33718;-70
2023/05/20 08:05:15;;;;;;;7.55;5.03;;;;;;;25.77;55.07;100837.09;5542566;32;33954;-69
2023/05/20 08:08:20;;;;;;;7.62;4.72;;;;;;;26.79;51.45;100842.28;5546544;32;34301;-70
2023/05/20 08:11:25;;;;;;;8.63;5.20;;;;;;;25.72;54.75;100834.31;5547526;32;33642;-69
2023/05/20 08:14:30;;;;;;;7.00;4.68;;;;;;;26.72;52.97;100830.81;5534904;32;34046;-69
2023/05/20 08:17:35;;;;;;;9.65;4.82;;;;;;;27.63;49.33;100839.41;5530838;32;33914;-70
2023/05/20 08:20:43;;;;;;;9.55;5.40;;;;;;;25.48;54.06;100834.59;5528910;32;34031;-70
2023/05/20 08:23:48;;;;;;;9.88;5.60;;;;;;;24.99;57.23;100838.31;5538506;32;33667;-68
2023/05/20 08:26:52;;;;;;;11.90;5.20;;;;;;;25.26;57.30;100831.09;5547915;32;35164;-68
2023/05/20 08:29:58;;;;;;;10.52;5.43;;;;;;;24.72;57.00;100826.53;5545921;32;34068;-68
2023/05/20 08:33:03;;;;;;;8.38;5.40;;;;;;;24.24;58.60;100828.81;5538165;32;34569;-69
2023/05/20 08:36:07;;;;;;;8.43;5.30;;;;;;;25.12;56.25;100825.19;5546861;32;34780;-69
2023/05/20 08:39:12;;;;;;;8.40;5.12;;;;;;;24.54;57.96;100814.09;5547523;32;33907;-68
2023/05/20 08:42:20;;;;;;;12.40;5.43;;;;;;;24.68;56.56;100818.91;5543970;32;33631;-69
2023/05/20 08:45:27;;;;;;;9.25;5.45;;;;;;;25.15;57.06;100821.16;5540309;32;33884;-68
2023/05/20 08:48:35;;;;;;;8.90;5.15;;;;;;;27.03;52.75;100807.31;5535125;32;34490;-69
2023/05/20 08:51:41;;;;;;;12.50;5.57;;;;;;;26.29;52.77;100808.22;5539072;32;36384;-70
2023/05/20 08:54:48;;;;;;;13.10;5.62;;;;;;;27.02;51.89;100805.66;5540886;32;34441;-72
2023/05/20 08:57:53;;;;;;;10.57;5.18;;;;;;;26.08;53.86;100805.56;5520717;32;34056;-68
2023/05/20 09:00:57;;;;;;;11.63;5.65;;;;;;;26.44;52.64;100791.16;5535430;32;34467;-68
2023/05/20 09:04:01;;;;;;;8.05;5.37;;;;;;;26.21;53.59;100796.97;5539520;32;34945;-72
2023/05/20 09:07:06;;;;;;;9.40;5.18;;;;;;;26.28;52.09;100798.44;5536968;32;35065;-70
2023/05/20 09:10:10;;;;;;;7.47;4.90;;;;;;;26.21;53.29;100795.09;5545774;32;34037;-68
2023/05/20 09:13:14;;;;;;;8.05;5.22;;;;;;;26.00;53.96;100792.47;5547159;32;34524;-71
2023/05/20 09:16:18;;;;;;;6.68;5.37;;;;;;;28.34;48.93;100790.38;5544455;32;31996;-70
2023/05/20 09:19:24;;;;;;;10.35;4.78;;;;;;;29.28;45.95;100795.81;5536172;32;33908;-70
2023/05/20 09:22:29;;;;;;;10.10;5.10;;;;;;;28.81;44.69;100790.00;5532243;32;34847;-70
2023/05/20 09:25:32;;;;;;;9.90;4.60;;;;;;;27.62;47.36;100783.25;5541414;32;33845;-69
2023/05/20 09:28:39;;;;;;;10.10;5.25;;;;;;;29.05;45.23;100788.28;5543636;32;34388;-69
2023/05/20 09:31:44;;;;;;;5.75;4.87;;;;;;;30.11;43.58;100787.59;5543495;32;34207;-68
2023/05/20 09:34:49;;;;;;;7.20;4.82;;;;;;;28.95;44.03;100785.56;5547359;32;34122;-69
2023/05/20 09:37:56;;;;;;;8.75;5.00;;;;;;;27.58;47.46;100774.81;5547366;32;33903;-69
2023/05/20 09:41:01;;;;;;;10.05;4.70;;;;;;;30.39;42.97;100769.56;5546672;32;34091;-70
2023/05/20 09:44:06;;;;;;;8.27;4.95;;;;;;;31.35;38.65;100762.94;5546454;32;33822;-69
2023/05/20 09:47:11;;;;;;;10.35;4.68;;;;;;;32.54;36.18;100767.81;5542956;32;33827;-69
2023/05/20 09:50:19;;;;;;;8.68;4.68;;;;;;;32.54;36.62;100753.25;5545810;32;33754;-69
2023/05/20 09:53:27;;;;;;;10.20;4.65;;;;;;;34.09;34.48;100755.53;5546936;32;34312;-70
2023/05/20 09:56:33;;;;;;;6.18;4.53;;;;;;;33.61;33.21;100750.66;5539598;32;33684;-68
2023/05/20 09:59:39;;;;;;;7.82;4.93;;;;;;;33.52;34.39;100736.03;5541086;32;33687;-70
2023/05/20 10:02:44;;;;;;;7.53;5.12;;;;;;;30.06;38.57;100738.44;5546879;32;33997;-69
2023/05/20 10:06:22;;;;;;;10.82;5.10;;;;;;;29.14;39.42;100734.69;5533799;32;34958;-68
2023/05/20 10:09:58;;;;;;;8.77;5.18;;;;;;;30.60;37.54;100731.84;5521409;32;33626;-71
2023/05/20 10:13:34;;;;;;;10.32;5.12;;;;;;;30.63;36.93;100729.34;5528096;32;34437;-70
2023/05/20 10:16:50;;;;;;;5.85;4.62;;;;;;;31.19;37.09;100712.19;5526858;32;33946;-68
2023/05/20 10:19:58;;;;;;;9.30;4.95;;;;;;;33.62;32.61;100716.53;5527605;32;33890;-67
2023/05/20 10:23:02;;;;;;;7.03;4.87;;;;;;;33.26;33.34;100721.25;5526218;32;33894;-70
2023/05/20 10:26:06;;;;;;;8.43;5.15;;;;;;;33.50;33.16;100720.97;5527733;32;34282;-71
2023/05/20 10:29:17;;;;;;;9.02;4.97;;;;;;;32.78;33.03;100720.91;5527536;32;33913;-69
2023/05/20 10:32:33;;;;;;;10.40;4.85;;;;;;;34.52;30.40;100714.44;5528796;32;33819;-70
2023/05/20 10:35:47;;;;;;;8.05;4.30;;;;;;;34.98;29.03;100707.59;5524370;32;34798;-70
2023/05/20 10:38:56;;;;;;;8.05;4.60;;;;;;;34.69;27.93;100702.69;5529170;32;34491;-70
2023/05/20 10:42:08;;;;;;;9.50;4.93;;;;;;;34.76;28.56;100703.03;5526706;32;33026;-69
2023/05/20 10:45:31;;;;;;;7.18;4.97;;;;;;;35.95;27.77;100690.34;5527190;32;34739;-70
2023/05/20 10:48:40;;;;;;;6.30;4.85;;;;;;;36.03;28.76;100694.22;5527348;32;33814;-70
2023/05/20 10:51:46;;;;;;;7.43;4.57;;;;;;;33.23;31.61;100686.12;5530553;32;34543;-71
2023/05/20 10:54:58;;;;;;;5.93;4.47;;;;;;;34.35;29.73;100687.66;5546415;32;33677;-69
2023/05/20 10:58:04;;;;;;;9.45;4.82;;;;;;;34.81;27.65;100680.81;5545569;32;33513;-69
2023/05/20 11:01:10;;;;;;;6.97;4.90;;;;;;;36.54;26.64;100677.44;5546674;32;34318;-69
2023/05/20 11:04:15;;;;;;;6.62;4.65;;;;;;;35.06;28.16;100679.22;5546766;32;33861;-70
2023/05/20 11:07:27;;;;;;;14.40;5.20;;;;;;;35.33;27.00;100676.16;5547377;32;34505;-68
2023/05/20 11:10:33;;;;;;;10.07;4.70;;;;;;;35.72;27.67;100680.69;5537913;32;33959;-70
2023/05/20 11:13:37;;;;;;;8.82;5.28;;;;;;;35.33;27.14;100659.62;5536976;32;33735;-69
2023/05/20 11:16:44;;;;;;;7.87;4.95;;;;;;;33.88;28.54;100667.19;5547619;32;33668;-70
2023/05/20 11:19:51;;;;;;;8.15;4.70;;;;;;;33.72;29.48;100668.72;5548621;32;33530;-69
2023/05/20 11:22:56;;;;;;;8.23;5.00;;;;;;;35.44;27.71;100657.34;5548966;32;33556;-70
2023/05/20 11:25:59;;;;;;;6.78;5.10;;;;;;;36.55;26.61;100662.44;5548739;32;33718;-70
2023/05/20 11:29:05;;;;;;;10.68;4.90;;;;;;;36.47;25.85;100659.75;5548220;32;34497;-69
2023/05/20 11:32:13;;;;;;;8.88;4.85;;;;;;;37.05;25.98;100658.88;5548845;32;35074;-69
2023/05/20 11:35:24;;;;;;;5.65;5.12;;;;;;;37.93;24.84;100661.28;5543527;32;33490;-70
2023/05/20 11:38:29;;;;;;;6.50;5.03;;;;;;;37.16;25.98;100653.78;5549233;32;34299;-69
2023/05/20 11:41:36;;;;;;;5.60;4.57;;;;;;;38.39;24.02;100662.84;5542884;32;34743;-69
2023/05/20 11:44:43;;;;;;;7.20;4.80;;;;;;;39.10;23.16;100651.19;5545695;32;34378;-68
2023/05/20 11:48:02;;;;;;;7.60;5.05;;;;;;;36.85;25.83;100651.38;5548890;32;33802;-70
2023/05/20 11:51:13;;;;;;;10.20;5.40;;;;;;;39.99;21.13;100656.41;5548908;32;34048;-69
2023/05/20 11:54:23;;;;;;;7.93;4.75;;;;;;;39.54;22.12;100647.28;5548506;32;33927;-69
2023/05/20 11:57:29;;;;;;;7.70;4.75;;;;;;;39.40;22.87;100651.66;5549008;32;33752;-68
2023/05/20 12:00:34;;;;;;;6.57;4.93;;;;;;;36.55;22.70;100645.88;5548326;32;34754;-69
2023/05/20 12:03:55;;;;;;;7.20;4.43;;;;;;;37.60;23.68;100643.91;5547957;32;33844;-70
2023/05/20 12:07:02;;;;;;;6.00;4.82;;;;;;;36.66;23.79;100640.78;5548713;32;34973;-69
2023/05/20 12:10:09;;;;;;;9.50;5.03;;;;;;;37.72;23.42;100641.97;5547696;32;34006;-70
2023/05/20 12:13:15;;;;;;;6.20;4.78;;;;;;;38.48;22.63;100638.59;5548819;32;34086;-69
2023/05/20 12:16:18;;;;;;;8.18;5.07;;;;;;;39.45;21.71;100629.19;5548566;32;33817;-69
2023/05/20 12:19:23;;;;;;;7.68;4.82;;;;;;;41.35;20.39;100634.84;5546870;32;33913;-68
2023/05/20 12:22:29;;;;;;;7.65;4.57;;;;;;;42.13;19.17;100636.25;5548343;32;33885;-69
2023/05/20 12:25:35;;;;;;;8.13;4.60;;;;;;;41.27;19.12;100633.13;5548414;32;33934;-70
2023/05/20 12:28:42;;;;;;;7.03;4.55;;;;;;;39.09;21.93;100619.03;5548147;32;33808;-69
2023/05/20 12:31:49;;;;;;;6.97;4.85;;;;;;;38.49;23.03;100611.69;5548475;32;33944;-69
2023/05/20 12:34:57;;;;;;;6.90;4.62;;;;;;;39.82;21.53;100627.81;5548235;32;34862;-68
2023/05/20 12:38:03;;;;;;;7.90;4.62;;;;;;;39.35;21.73;100611.09;5548382;32;34522;-72
2023/05/20 12:41:10;;;;;;;11.07;4.80;;;;;;;37.70;22.08;100618.56;5547665;32;34659;-68
2023/05/20 12:44:15;;;;;;;6.32;4.82;;;;;;;38.06;22.80;100603.94;5548456;32;33941;-69
2023/05/20 12:47:21;;;;;;;10.27;4.78;;;;;;;38.54;21.69;100606.69;5548299;32;33808;-69
2023/05/20 12:50:28;;;;;;;8.63;4.53;;;;;;;40.72;20.89;100615.66;5547457;32;33886;-69
2023/05/20 12:53:35;;;;;;;6.70;4.97;;;;;;;41.05;20.32;100611.62;5547163;32;33900;-68
2023/05/20 12:56:46;;;;;;;6.87;4.57;;;;;;;39.36;21.95;100609.13;5538076;32;33786;-69
2023/05/20 12:59:52;;;;;;;6.43;4.97;;;;;;;40.92;20.46;100612.88;5548055;32;33806;-69
2023/05/20 13:02:59;;;;;;;7.82;5.10;;;;;;;40.00;20.24;100605.19;5547870;32;34723;-68
2023/05/20 13:06:05;;;;;;;7.22;4.68;;;;;;;39.92;21.40;100587.56;5547967;32;33892;-68
2023/05/20 13:09:12;;;;;;;6.35;4.68;;;;;;;39.63;22.31;100593.53;5542910;32;34688;-68
2023/05/20 13:12:18;;;;;;;7.93;4.93;;;;;;;41.49;20.69;100584.22;5547990;32;34690;-69
2023/05/20 13:15:24;;;;;;;5.85;4.93;;;;;;;41.15;21.55;100589.53;5547848;32;34064;-70
2023/05/20 13:18:31;;;;;;;7.33;4.70;;;;;;;39.59;22.75;100581.53;5548060;32;33885;-68
2023/05/20 13:21:43;;;;;;;7.05;4.72;;;;;;;38.06;22.94;100577.06;5547986;32;34400;-69
2023/05/20 13:24:50;;;;;;;6.03;5.03;;;;;;;38.01;23.63;100568.97;5548010;32;35035;-69
2023/05/20 13:27:57;;;;;;;6.40;5.00;;;;;;;39.25;23.34;100575.47;5547973;32;33593;-68
2023/05/20 13:31:04;;;;;;;7.43;4.75;;;;;;;40.76;22.00;100562.91;5547613;32;33804;-70
2023/05/20 13:34:11;;;;;;;8.47;5.07;;;;;;;39.87;22.32;100562.84;5542959;32;33676;-69
2023/05/20 13:37:18;;;;;;;7.20;5.35;;;;;;;39.28;21.78;100551.75;5532652;32;34452;-69
2023/05/20 13:40:24;;;;;;;8.57;5.45;;;;;;;39.82;21.33;100552.00;5527771;32;33822;-69
2023/05/20 13:43:31;;;;;;;7.10;4.80;;;;;;;40.67;21.79;100548.38;5528362;32;34086;-69
2023/05/20 13:46:38;;;;;;;7.97;5.23;;;;;;;41.00;21.51;100559.81;5528205;32;34826;-69
2023/05/20 13:49:43;;;;;;;9.43;5.10;;;;;;;40.22;21.80;100549.00;5527790;32;33977;-69
2023/05/20 13:52:48;;;;;;;6.35;5.22;;;;;;;40.38;22.08;100541.38;5527660;32;33797;-69
2023/05/20 13:55:57;;;;;;;8.95;4.85;;;;;;;41.00;21.04;100536.72;5530839;32;33888;-70
2023/05/20 13:59:03;;;;;;;8.02;5.20;;;;;;;40.13;21.88;100543.59;5528356;32;34733;-69
2023/05/20 14:02:10;;;;;;;6.00;5.30;;;;;;;39.14;22.80;100541.06;5528464;32;34402;-69
2023/05/20 14:05:20;;;;;;;7.80;5.30;;;;;;;40.58;22.50;100537.44;5528269;32;34589;-68
2023/05/20 14:08:25;;;;;;;8.05;5.35;;;;;;;38.95;22.32;100538.97;5542286;32;33943;-69
2023/05/20 14:11:33;;;;;;;13.95;5.40;;;;;;;38.29;22.15;100539.38;5546061;32;33824;-67
2023/05/20 14:14:40;;;;;;;9.38;5.30;;;;;;;37.38;23.35;100543.50;5527879;32;34557;-69
2023/05/20 14:17:47;;;;;;;8.55;5.30;;;;;;;35.64;25.24;100543.47;5532130;32;34410;-69
2023/05/20 14:20:51;;;;;;;7.15;5.30;;;;;;;33.05;29.24;100527.63;5536449;32;33627;-69